Time;durP1;ratioP1;P1;durP2;ratioP2;P2;SDS_P1;SDS_P2;PMS_P1;PMS_P2;Temp;Humidity;BMP_temperature;BMP_pressure;BME280_temperature;BME280_humidity;BME280_pressure;Samples;Min_cycle;Max_cycle;Signal;HPM_P1;HPM_P2
2023/02/21 02:14:53;;;;;;;75.28;30.92;;;8.20;99.90;;;;;;5032608;28;20451;-92
2023/02/21 02:17:54;;;;;;;80.30;32.90;;;8.20;99.90;;;;;;5031942;28;20045;-91
2023/02/21 02:20:28;;;;;;;65.35;31.35;;;8.80;99.90;;;;;;5069676;28;20039;-92
2023/02/21 02:23:28;;;;;;;74.53;32.63;;;8.50;99.90;;;;;;5074124;28;20032;-93
2023/02/21 02:26:31;;;;;;;72.88;30.70;;;8.20;99.90;;;;;;5054086;28;20036;-92
2023/02/21 02:29:35;;;;;;;72.45;32.22;;;8.30;99.90;;;;;;5054193;28;20032;-92
2023/02/21 02:32:26;;;;;;;76.10;33.50;;;8.20;99.90;;;;;;5053604;28;20021;-92
2023/02/21 02:35:14;;;;;;;86.05;32.75;;;8.20;99.90;;;;;;5053464;28;20041;-92
2023/02/21 02:38:15;;;;;;;77.28;32.63;;;8.20;99.90;;;;;;5053784;28;20025;-92
2023/02/21 02:40:49;;;;;;;76.97;34.88;;;8.20;99.90;;;;;;5048165;28;20078;-93
2023/02/21 02:43:44;;;;;;;81.50;35.90;;;8.20;99.90;;;;;;5053534;28;20041;-92
2023/02/21 02:46:25;;;;;;;74.50;33.00;;;8.30;99.90;;;;;;5053886;28;20029;-93
2023/02/21 02:49:15;;;;;;;71.80;32.35;;;8.30;99.90;;;;;;5053816;28;20036;-92
2023/02/21 02:51:47;;;;;;;86.28;35.13;;;8.70;99.90;;;;;;5053621;28;20029;-92
2023/02/21 02:54:18;;;;;;;67.25;33.90;;;9.80;99.90;;;;;;5053959;28;20060;-93
2023/02/21 02:56:47;;;;;;;72.85;32.42;;;9.00;99.90;;;;;;5053761;28;20079;-93
2023/02/21 02:59:32;;;;;;;74.57;34.70;;;8.30;99.90;;;;;;5053663;28;20094;-93
2023/02/21 03:02:31;;;;;;;80.95;35.15;;;8.30;99.90;;;;;;5053901;28;20025;-92
2023/02/21 03:05:33;;;;;;;77.63;36.10;;;8.40;99.90;;;;;;5053549;28;20033;-92
2023/02/21 03:08:04;;;;;;;81.03;37.13;;;8.70;99.90;;;;;;5066171;28;20001;-92
2023/02/21 03:13:20;;;;;;;83.35;39.20;;;8.30;99.90;;;;;;5080639;22;20060;-93
2023/02/21 03:16:23;;;;;;;89.47;37.88;;;8.80;99.90;;;;;;5081655;28;20020;-93
2023/02/21 03:19:26;;;;;;;80.13;36.28;;;8.30;99.90;;;;;;5031881;28;20025;-92
2023/02/21 03:22:00;;;;;;;87.10;37.13;;;8.20;99.90;;;;;;5031655;28;20504;-92
2023/02/21 03:24:31;;;;;;;95.20;39.50;;;8.60;99.90;;;;;;5031415;28;20536;-92
2023/02/21 03:27:06;;;;;;;96.78;39.47;;;8.70;99.90;;;;;;5051951;28;20024;-93
2023/02/21 03:29:34;;;;;;;87.20;38.00;;;8.80;99.90;;;;;;5075924;28;20128;-93
2023/02/21 03:34:42;;;;;;;94.22;40.30;;;8.20;99.90;;;;;;5077046;28;20020;-93
2023/02/21 03:37:32;;;;;;;94.13;40.35;;;8.10;99.90;;;;;;5076863;28;20078;-91
2023/02/21 03:39:59;;;;;;;98.78;40.30;;;8.20;99.90;;;;;;5076468;28;20089;-91
2023/02/21 03:42:25;;;;;;;108.25;41.55;;;8.80;99.90;;;;;;5076732;28;20086;-92
2023/02/21 03:45:03;;;;;;;111.60;40.40;;;8.80;99.90;;;;;;5076485;28;20475;-92
2023/02/21 03:47:44;;;;;;;111.57;41.05;;;8.10;99.90;;;;;;5076632;28;20438;-91
2023/02/21 03:50:22;;;;;;;104.18;40.70;;;8.40;99.90;;;;;;5076795;28;20468;-91
2023/02/21 03:52:50;;;;;;;106.18;41.97;;;9.10;99.90;;;;;;5076709;28;20032;-92
2023/02/21 03:55:32;;;;;;;105.07;40.72;;;8.80;99.90;;;;;;5077728;28;20486;-94
2023/02/21 03:57:58;;;;;;;107.65;42.15;;;8.60;99.90;;;;;;5076759;28;20040;-92
2023/02/21 04:00:26;;;;;;;101.65;41.15;;;8.70;99.90;;;;;;5076476;28;20043;-92
2023/02/21 04:02:58;;;;;;;99.65;39.72;;;7.80;99.90;;;;;;5076819;28;20078;-93
2023/02/21 04:05:29;;;;;;;99.40;41.10;;;8.30;99.90;;;;;;5076154;28;20021;-92
2023/02/21 04:08:02;;;;;;;106.63;39.38;;;8.70;99.90;;;;;;5076707;28;20021;-93
2023/02/21 04:10:36;;;;;;;103.43;41.35;;;8.20;99.90;;;;;;5076267;28;20372;-91
2023/02/21 04:13:06;;;;;;;107.80;44.08;;;8.30;99.90;;;;;;5076115;28;20110;-93
2023/02/21 04:15:37;;;;;;;101.22;41.00;;;9.10;99.90;;;;;;5076428;28;20078;-94
2023/02/21 04:18:06;;;;;;;96.10;39.53;;;8.40;99.90;;;;;;5076412;28;20024;-92
2023/02/21 04:20:38;;;;;;;111.00;40.17;;;8.80;99.90;;;;;;5076006;28;20086;-93
2023/02/21 04:23:19;;;;;;;100.32;38.70;;;9.20;99.90;;;;;;5076129;28;20067;-94
2023/02/21 04:25:45;;;;;;;98.65;40.83;;;8.30;99.90;;;;;;5075966;28;20036;-93
2023/02/21 04:28:13;;;;;;;94.95;40.80;;;8.90;99.90;;;;;;5076063;28;20024;-94
2023/02/21 04:30:45;;;;;;;104.50;40.15;;;8.80;99.90;;;;;;5075829;28;20024;-94
2023/02/21 04:33:17;;;;;;;107.85;41.28;;;8.80;99.90;;;;;;5075620;28;20025;-93
2023/02/21 04:35:47;;;;;;;86.60;38.28;;;9.00;99.90;;;;;;5075874;28;20024;-94
2023/02/21 04:38:18;;;;;;;101.28;40.92;;;7.80;99.90;;;;;;5075580;28;20073;-93
2023/02/21 04:40:47;;;;;;;102.68;39.30;;;8.70;99.90;;;;;;5075587;28;20044;-94
2023/02/21 04:43:20;;;;;;;93.82;39.50;;;9.00;99.90;;;;;;5075172;28;20020;-93
2023/02/21 04:45:52;;;;;;;98.47;40.45;;;9.00;99.90;;;;;;5075799;28;20055;-92
2023/02/21 04:48:20;;;;;;;102.97;40.60;;;8.90;99.90;;;;;;5075783;28;20077;-93
2023/02/21 04:50:49;;;;;;;95.82;41.17;;;9.00;99.90;;;;;;5075672;28;20029;-93
2023/02/21 04:53:20;;;;;;;104.90;42.08;;;8.70;99.90;;;;;;5076192;28;20166;-92
2023/02/21 04:55:52;;;;;;;100.85;41.38;;;8.30;99.90;;;;;;5082004;28;20024;-93
2023/02/21 04:58:21;;;;;;;96.43;41.10;;;9.00;99.90;;;;;;5084720;28;20605;-91
2023/02/21 05:00:59;;;;;;;100.15;38.97;;;9.10;99.90;;;;;;5087398;28;20012;-91
2023/02/21 05:03:27;;;;;;;84.45;38.90;;;9.00;99.90;;;;;;5077323;28;20455;-94
2023/02/21 05:05:59;;;;;;;90.20;38.75;;;8.30;99.90;;;;;;5074710;28;20472;-91
2023/02/21 05:08:35;;;;;;;92.03;40.08;;;9.10;99.90;;;;;;5074304;28;20476;-91
2023/02/21 05:11:04;;;;;;;86.55;39.00;;;9.00;99.90;;;;;;5074605;28;20040;-93
2023/02/21 05:13:35;;;;;;;100.35;41.10;;;8.50;99.90;;;;;;5081511;22;20040;-93
2023/02/21 05:16:07;;;;;;;92.30;38.90;;;9.30;99.90;;;;;;5081900;22;20080;-92
2023/02/21 05:18:43;;;;;;;97.38;41.72;;;8.70;99.90;;;;;;5074146;28;20028;-92
2023/02/21 05:21:13;;;;;;;102.13;41.75;;;8.50;99.90;;;;;;5074558;28;20464;-92
2023/02/21 05:23:54;;;;;;;96.63;41.70;;;8.50;99.90;;;;;;5074968;28;20025;-93
2023/02/21 05:26:22;;;;;;;97.10;40.13;;;9.10;99.90;;;;;;5074897;28;20055;-94
2023/02/21 05:28:48;;;;;;;110.30;41.75;;;8.80;99.90;;;;;;5074892;28;20024;-92
2023/02/21 05:31:14;;;;;;;100.22;41.42;;;9.10;99.90;;;;;;5074490;28;20112;-94
2023/02/21 05:33:46;;;;;;;102.40;41.15;;;8.50;99.90;;;;;;5074787;28;20468;-93
2023/02/21 05:36:24;;;;;;;102.93;42.33;;;9.20;99.90;;;;;;5074872;28;20058;-92
2023/02/21 05:38:54;;;;;;;101.97;41.03;;;9.20;99.90;;;;;;5074485;28;20029;-92
2023/02/21 05:41:23;;;;;;;100.78;42.40;;;8.60;99.90;;;;;;5074421;28;20024;-94
2023/02/21 05:43:52;;;;;;;105.47;43.00;;;9.00;99.90;;;;;;5074750;28;20029;-93
2023/02/21 05:46:27;;;;;;;106.15;41.58;;;9.00;99.90;;;;;;5074439;28;20024;-94
2023/02/21 05:48:54;;;;;;;117.55;45.80;;;8.90;99.90;;;;;;5074612;28;20028;-92
2023/02/21 05:51:34;;;;;;;107.38;42.35;;;9.10;99.90;;;;;;5073642;28;20056;-93
2023/02/21 05:54:00;;;;;;;101.72;44.03;;;8.90;99.90;;;;;;5074988;28;20047;-93
2023/02/21 05:56:37;;;;;;;100.65;43.35;;;8.40;99.90;;;;;;5074410;28;20056;-93
2023/02/21 05:59:03;;;;;;;100.63;43.17;;;9.80;99.90;;;;;;5074485;28;20039;-93
2023/02/21 06:01:38;;;;;;;91.68;40.75;;;9.10;99.90;;;;;;5074325;28;20025;-91
2023/02/21 06:04:07;;;;;;;86.38;42.72;;;8.50;99.90;;;;;;5074676;28;20154;-94
2023/02/21 06:06:42;;;;;;;95.25;41.85;;;8.70;99.90;;;;;;5074668;28;20464;-94
2023/02/21 06:09:14;;;;;;;96.40;41.38;;;8.90;99.90;;;;;;5082732;22;20053;-93
2023/02/21 06:11:48;;;;;;;99.32;42.53;;;9.00;99.90;;;;;;5053803;28;20025;-93
2023/02/21 06:16:51;;;;;;;103.50;43.83;;;8.50;99.90;;;;;;5117819;22;20508;-93
2023/02/21 06:21:56;;;;;;;112.88;45.72;;;8.50;99.90;;;;;;5059888;22;20053;-95
2023/02/21 06:24:30;;;;;;;96.10;43.83;;;9.20;99.90;;;;;;5064426;28;20353;-94
2023/02/21 06:26:59;;;;;;;107.20;43.75;;;9.30;99.90;;;;;;5074715;28;20058;-94
2023/02/21 06:29:37;;;;;;;108.72;45.45;;;9.30;99.90;;;;;;5065803;28;20104;-95
2023/02/21 06:32:06;;;;;;;94.43;42.72;;;8.50;99.90;;;;;;5055242;28;20039;-94
2023/02/21 06:34:31;;;;;;;94.05;41.55;;;8.90;99.90;;;;;;5054778;28;20017;-94
2023/02/21 06:36:57;;;;;;;97.40;42.42;;;9.10;99.90;;;;;;5078135;22;20107;-94
2023/02/21 06:39:28;;;;;;;98.00;43.28;;;8.70;99.90;;;;;;5064498;28;20032;-93
2023/02/21 06:41:59;;;;;;;100.55;42.95;;;8.30;99.90;;;;;;5087856;22;20028;-92
2023/02/21 06:44:28;;;;;;;102.88;43.78;;;9.10;99.90;;;;;;5091716;22;20083;-91
2023/02/21 06:46:59;;;;;;;105.53;44.40;;;9.10;99.90;;;;;;5086805;22;20072;-90
2023/02/21 06:49:34;;;;;;;101.03;42.83;;;8.60;99.90;;;;;;5058515;28;20033;-93
2023/02/21 06:52:07;;;;;;;104.95;46.13;;;9.00;99.90;;;;;;5056490;28;20017;-93
2023/02/21 06:54:35;;;;;;;105.60;43.08;;;8.80;99.90;;;;;;5055314;28;20028;-93
2023/02/21 06:57:07;;;;;;;112.53;46.00;;;9.00;99.90;;;;;;5056055;28;20033;-94
2023/02/21 06:59:39;;;;;;;109.95;45.03;;;9.10;99.90;;;;;;5056269;28;20033;-94
2023/02/21 07:02:17;;;;;;;105.95;42.97;;;8.60;99.90;;;;;;5056934;28;20025;-93
2023/02/21 07:04:43;;;;;;;111.97;45.20;;;9.10;99.90;;;;;;5059268;28;20110;-93
2023/02/21 07:07:08;;;;;;;109.47;42.00;;;9.00;99.90;;;;;;5058358;28;20024;-92
2023/02/21 07:09:46;;;;;;;116.88;45.45;;;8.60;99.90;;;;;;5059864;28;20025;-94
2023/02/21 07:12:15;;;;;;;106.35;42.83;;;9.10;99.90;;;;;;5061721;28;20021;-94
2023/02/21 07:14:47;;;;;;;104.77;44.40;;;8.90;99.90;;;;;;5058862;28;20111;-93
2023/02/21 07:17:16;;;;;;;111.85;44.70;;;9.10;99.90;;;;;;5060421;28;20624;-94
2023/02/21 07:19:47;;;;;;;115.68;43.40;;;8.20;99.90;;;;;;5059131;28;20033;-92
2023/02/21 07:22:24;;;;;;;116.45;44.78;;;8.50;99.90;;;;;;5059429;28;20029;-93
2023/02/21 07:24:51;;;;;;;112.00;44.55;;;9.20;99.90;;;;;;5060012;28;20041;-93
2023/02/21 07:27:23;;;;;;;113.18;43.95;;;9.80;99.90;;;;;;5057615;28;20028;-92
2023/02/21 07:29:51;;;;;;;121.05;43.72;;;8.90;99.90;;;;;;5058398;28;20032;-90
2023/02/21 07:32:23;;;;;;;116.63;44.40;;;8.90;99.90;;;;;;5057458;28;20029;-91
2023/02/21 07:35:00;;;;;;;125.05;44.30;;;8.90;99.90;;;;;;5057998;28;20036;-94
2023/02/21 07:37:35;;;;;;;117.68;43.95;;;8.70;99.90;;;;;;5058413;28;20025;-91
2023/02/21 07:40:06;;;;;;;121.95;47.15;;;8.50;99.90;;;;;;5057067;28;20037;-90
2023/02/21 07:42:42;;;;;;;126.53;45.47;;;8.50;99.90;;;;;;5059025;28;20118;-93
2023/02/21 07:45:09;;;;;;;117.00;46.50;;;8.70;99.90;;;;;;5059187;28;20060;-94
2023/02/21 07:47:38;;;;;;;128.52;46.67;;;9.00;99.90;;;;;;5041953;28;20053;-92
2023/02/21 07:50:09;;;;;;;123.45;48.45;;;8.70;99.90;;;;;;5019315;28;20033;-91
2023/02/21 07:52:45;;;;;;;121.97;47.80;;;9.30;99.90;;;;;;5029564;23;20057;-90
2023/02/21 07:55:13;;;;;;;128.35;47.63;;;9.10;99.90;;;;;;5037753;28;20026;-93
2023/02/21 07:57:47;;;;;;;123.95;46.88;;;9.30;99.90;;;;;;5048738;22;20056;-93
2023/02/21 08:00:17;;;;;;;119.35;45.88;;;10.00;99.90;;;;;;5042243;28;20086;-92
2023/02/21 08:02:52;;;;;;;109.50;44.47;;;8.80;99.90;;;;;;5039484;28;20025;-91
2023/02/21 08:05:24;;;;;;;116.25;45.15;;;8.80;99.90;;;;;;5253722;22;20008;-93
2023/02/21 08:10:24;;;;;;;119.80;44.40;;;8.80;99.90;;;;;;5026023;22;20057;-92
2023/02/21 08:12:52;;;;;;;104.03;43.05;;;9.30;99.90;;;;;;5043026;22;20489;-94
2023/02/21 08:15:21;;;;;;;102.85;43.70;;;9.30;99.90;;;;;;5048479;22;20041;-93
2023/02/21 08:17:53;;;;;;;106.13;43.50;;;9.10;99.90;;;;;;5095117;28;20028;-94
2023/02/21 08:22:50;;;;;;;103.28;40.92;;;8.80;99.90;;;;;;5083788;22;20114;-91
2023/02/21 08:25:24;;;;;;;102.70;39.97;;;9.30;99.90;;;;;;5083886;22;20052;-91
2023/02/21 08:27:59;;;;;;;111.18;40.65;;;9.40;99.90;;;;;;5085194;28;20028;-95
2023/02/21 08:30:24;;;;;;;99.25;38.80;;;8.90;99.90;;;;;;5082632;28;20052;-92
2023/02/21 08:32:50;;;;;;;107.63;42.00;;;9.30;99.90;;;;;;5076913;28;20459;-92
2023/02/21 08:35:34;;;;;;;91.80;39.13;;;9.30;99.90;;;;;;5079373;28;20036;-93
2023/02/21 08:38:04;;;;;;;102.85;38.45;;;9.60;99.90;;;;;;5081019;28;20028;-94
2023/02/21 08:40:38;;;;;;;108.97;41.72;;;9.00;99.90;;;;;;5086463;28;20047;-94
2023/02/21 08:43:06;;;;;;;102.78;37.97;;;9.30;99.90;;;;;;5086999;28;20067;-94
2023/02/21 08:45:32;;;;;;;102.43;37.28;;;8.90;99.90;;;;;;5081512;28;20021;-92
2023/02/21 08:47:58;;;;;;;88.97;36.85;;;9.40;99.90;;;;;;5067514;22;20053;-93
2023/02/21 08:50:28;;;;;;;104.35;38.83;;;9.40;99.90;;;;;;5055902;28;20040;-93
2023/02/21 08:53:02;;;;;;;92.57;37.45;;;9.40;99.90;;;;;;5055494;28;20021;-92
2023/02/21 08:55:31;;;;;;;93.07;37.33;;;9.50;99.90;;;;;;5085685;22;20076;-92
2023/02/21 08:58:02;;;;;;;94.32;38.22;;;9.60;99.90;;;;;;5082563;22;20095;-92
2023/02/21 09:00:31;;;;;;;93.65;37.60;;;8.90;99.90;;;;;;5089976;22;20084;-93
2023/02/21 09:05:37;;;;;;;103.95;37.40;;;9.00;99.90;;;;;;5102784;22;20128;-93
2023/02/21 09:10:34;;;;;;;91.60;36.72;;;8.90;99.90;;;;;;5087066;22;20127;-90
2023/02/21 09:13:04;;;;;;;100.93;38.60;;;9.10;99.90;;;;;;5080610;22;20040;-91
2023/02/21 09:15:33;;;;;;;89.38;36.47;;;9.60;99.90;;;;;;5082052;22;20162;-91
2023/02/21 09:18:59;;;;;;;;;;;;;;;;;;;;;
2023/02/21 09:24:32;;;;;;;101.57;37.95;;;8.90;99.90;;;;;;5108569;22;20037;-95
2023/02/21 09:27:05;;;;;;;96.43;39.03;;;9.90;99.90;;;;;;5077837;28;20063;-95
2023/02/21 09:29:35;;;;;;;116.18;38.90;;;9.80;99.90;;;;;;5076529;28;20048;-93
2023/02/21 09:32:06;;;;;;;100.97;38.15;;;9.30;99.90;;;;;;5078765;28;20025;-95
2023/02/21 09:34:35;;;;;;;95.72;36.20;;;9.40;99.90;;;;;;5076022;28;20025;-92
2023/02/21 09:37:05;;;;;;;99.85;38.50;;;9.30;99.90;;;;;;5078031;28;20043;-92
2023/02/21 09:39:30;;;;;;;96.10;37.67;;;9.30;99.90;;;;;;5076129;28;20029;-92
2023/02/21 09:42:05;;;;;;;105.85;37.33;;;9.90;99.90;;;;;;5075139;28;20081;-91
2023/02/21 09:44:34;;;;;;;97.55;37.30;;;9.00;99.90;;;;;;5075768;28;20028;-92
2023/02/21 09:47:06;;;;;;;97.38;37.67;;;8.60;99.90;;;;;;5077936;28;20028;-93
2023/02/21 09:49:40;;;;;;;106.43;39.88;;;9.60;99.90;;;;;;5074898;28;20082;-93
2023/02/21 09:52:20;;;;;;;100.13;38.67;;;9.30;99.90;;;;;;5075056;28;20495;-92
2023/02/21 09:55:12;;;;;;;106.20;38.55;;;9.10;99.90;;;;;;5075418;28;20159;-91
2023/02/21 09:57:41;;;;;;;103.20;36.55;;;9.20;99.90;;;;;;5075395;28;20028;-95
2023/02/21 10:00:41;;;;;;;97.03;37.60;;;9.40;99.90;;;;;;5074779;28;20035;-93
2023/02/21 10:03:41;;;;;;;100.20;37.55;;;9.10;99.90;;;;;;5074701;28;20025;-93
2023/02/21 10:06:18;;;;;;;107.68;38.40;;;9.10;99.90;;;;;;5074558;28;20052;-92
2023/02/21 10:09:11;;;;;;;101.40;39.42;;;9.00;99.90;;;;;;5075295;28;20104;-94
2023/02/21 10:12:20;;;;;;;107.28;39.75;;;9.10;99.90;;;;;;5074569;28;20024;-93
2023/02/21 10:15:04;;;;;;;101.30;38.67;;;9.10;99.90;;;;;;5081606;28;20028;-93
2023/02/21 10:17:39;;;;;;;106.65;38.25;;;9.70;99.90;;;;;;5082109;28;20036;-94
2023/02/21 10:20:14;;;;;;;107.07;39.50;;;9.70;99.90;;;;;;5079492;28;20064;-95
2023/02/21 10:22:45;;;;;;;103.88;41.63;;;9.30;99.90;;;;;;5076382;28;20021;-92
2023/02/21 10:25:30;;;;;;;99.68;38.55;;;9.20;99.90;;;;;;5084351;28;20092;-93
2023/02/21 10:27:57;;;;;;;97.90;37.67;;;8.70;99.90;;;;;;5059614;28;20033;-93
2023/02/21 10:30:39;;;;;;;106.50;39.75;;;10.20;99.90;;;;;;5076337;28;20024;-94
2023/02/21 10:33:05;;;;;;;96.95;40.05;;;9.20;99.90;;;;;;5078867;28;20035;-93
2023/02/21 10:35:40;;;;;;;100.75;39.70;;;10.40;99.90;;;;;;5074039;28;20017;-92
2023/02/21 10:38:16;;;;;;;105.95;41.08;;;10.10;99.90;;;;;;5076910;28;20021;-91
2023/02/21 10:40:50;;;;;;;108.22;40.60;;;9.10;99.90;;;;;;5078086;28;20137;-91
2023/02/21 10:43:31;;;;;;;101.22;39.60;;;9.10;99.90;;;;;;5078690;28;20025;-91
2023/02/21 10:46:00;;;;;;;98.15;39.15;;;9.00;99.90;;;;;;5079405;28;20351;-92
2023/02/21 10:48:31;;;;;;;92.97;37.03;;;9.10;99.90;;;;;;5078126;28;20367;-90
2023/02/21 10:50:56;;;;;;;;;;;9.10;99.90;;;;;;5078167;28;20056;-92
2023/02/21 10:53:29;;;;;;;89.85;35.35;;;9.20;99.90;;;;;;5077541;28;19998;-91
2023/02/21 10:56:19;;;;;;;83.47;34.63;;;9.20;99.90;;;;;;5077414;28;20031;-92
2023/02/21 10:58:48;;;;;;;78.75;31.13;;;9.10;99.90;;;;;;5077538;28;20032;-90
2023/02/21 11:01:39;;;;;;;76.15;32.70;;;9.20;99.90;;;;;;5077118;28;20025;-91
2023/02/21 11:04:18;;;;;;;68.60;30.08;;;9.20;99.90;;;;;;5077070;28;20476;-90
2023/02/21 11:06:47;;;;;;;57.20;27.00;;;9.20;99.90;;;;;;5077410;28;20032;-92
2023/02/21 11:09:37;;;;;;;59.00;27.98;;;9.10;99.90;;;;;;5077980;28;20028;-91
2023/02/21 11:12:09;;;;;;;63.00;26.35;;;9.10;99.90;;;;;;5077193;28;20017;-91
2023/02/21 11:14:37;;;;;;;57.45;27.20;;;9.10;99.90;;;;;;5077292;28;20028;-92
2023/02/21 11:17:15;;;;;;;59.85;26.77;;;9.10;99.90;;;;;;5077514;28;20031;-90
2023/02/21 11:19:53;;;;;;;56.50;26.35;;;9.20;99.90;;;;;;5077678;28;20061;-91
2023/02/21 11:22:41;;;;;;;48.55;23.70;;;9.20;99.90;;;;;;5077016;28;20494;-91
2023/02/21 11:25:19;;;;;;;51.65;21.55;;;9.20;99.90;;;;;;5077343;28;20032;-89
2023/02/21 11:28:03;;;;;;;54.00;24.85;;;9.30;99.90;;;;;;5037228;28;20108;-91
2023/02/21 11:30:34;;;;;;;45.38;21.08;;;9.30;99.90;;;;;;5037065;28;20060;-91
2023/02/21 11:33:03;;;;;;;40.17;19.92;;;9.30;99.90;;;;;;5037081;28;20025;-92
2023/02/21 11:35:33;;;;;;;42.58;19.70;;;9.30;99.90;;;;;;5037228;28;20037;-91
2023/02/21 11:38:05;;;;;;;36.97;19.13;;;9.30;99.90;;;;;;5037365;28;20136;-91
2023/02/21 11:40:34;;;;;;;33.90;18.42;;;9.40;99.90;;;;;;5036648;28;20048;-91
2023/02/21 11:43:24;;;;;;;27.23;15.32;;;9.40;99.90;;;;;;5036802;28;20036;-91
2023/02/21 11:46:31;;;;;;;28.52;16.20;;;9.40;99.90;;;;;;5037650;28;20028;-89
2023/02/21 11:49:34;;;;;;;29.10;16.25;;;9.40;99.90;;;;;;5032735;28;20481;-94
2023/02/21 11:52:05;;;;;;;26.20;15.50;;;9.30;99.90;;;;;;5037192;28;20021;-92
2023/02/21 11:54:31;;;;;;;24.77;15.50;;;9.30;99.90;;;;;;5037467;28;20030;-92
2023/02/21 11:57:21;;;;;;;22.02;15.05;;;9.40;99.90;;;;;;5037486;28;20519;-91
2023/02/21 12:00:24;;;;;;;25.52;15.30;;;9.40;99.90;;;;;;5037020;28;20041;-93
2023/02/21 12:03:04;;;;;;;22.25;14.60;;;9.40;99.90;;;;;;5046755;28;20029;-92
2023/02/21 12:06:07;;;;;;;24.73;15.77;;;9.30;99.90;;;;;;5047628;28;20044;-92
2023/02/21 12:08:50;;;;;;;22.17;13.45;;;9.40;99.90;;;;;;5035110;28;20859;-93
2023/02/21 12:11:43;;;;;;;22.77;14.57;;;10.00;99.90;;;;;;5036242;28;20109;-92
2023/02/21 12:14:35;;;;;;;23.90;14.73;;;9.40;99.90;;;;;;5034798;28;20043;-89
2023/02/21 12:17:03;;;;;;;21.45;14.30;;;9.40;99.90;;;;;;5037117;28;20067;-90
2023/02/21 12:19:54;;;;;;;23.33;14.57;;;9.40;99.90;;;;;;5035461;28;20780;-90
2023/02/21 12:22:38;;;;;;;;;;;9.40;99.90;;;;;;5037812;28;20022;-92
2023/02/21 12:25:43;;;;;;;25.67;14.27;;;9.40;99.90;;;;;;5036421;28;19905;-91
2023/02/21 12:28:23;;;;;;;24.48;13.82;;;9.40;99.90;;;;;;5056043;28;20060;-90
2023/02/21 12:31:13;;;;;;;18.90;13.57;;;9.40;99.90;;;;;;5057321;28;20568;-91
2023/02/21 12:34:02;;;;;;;23.02;13.18;;;9.40;99.90;;;;;;5057005;28;20112;-90
2023/02/21 12:36:52;;;;;;;21.60;12.93;;;9.40;99.90;;;;;;5055582;28;20108;-91
2023/02/21 12:39:38;;;;;;;19.52;13.02;;;9.50;99.90;;;;;;5056318;28;20278;-91
2023/02/21 12:42:22;;;;;;;18.83;13.35;;;9.40;99.90;;;;;;5056697;28;20021;-92
2023/02/21 12:45:17;;;;;;;21.42;13.48;;;9.40;99.90;;;;;;5055154;28;20480;-92
2023/02/21 12:48:06;;;;;;;23.70;13.70;;;9.40;99.90;;;;;;5047479;28;20029;-91
2023/02/21 12:50:42;;;;;;;20.58;13.10;;;9.40;99.90;;;;;;5056171;28;20021;-92
2023/02/21 12:53:24;;;;;;;21.65;14.00;;;9.50;99.90;;;;;;5055151;28;20111;-92
2023/02/21 12:55:58;;;;;;;22.80;13.15;;;9.50;99.90;;;;;;5056898;28;20021;-92
2023/02/21 12:58:29;;;;;;;20.63;13.07;;;9.50;99.90;;;;;;5055177;28;20031;-91
2023/02/21 13:01:00;;;;;;;23.00;13.27;;;10.10;99.90;;;;;;5055552;28;20036;-91
2023/02/21 13:03:41;;;;;;;19.33;12.60;;;9.50;99.90;;;;;;5055054;28;20021;-90
2023/02/21 13:06:31;;;;;;;21.15;12.93;;;9.40;99.90;;;;;;5047172;28;20029;-92
2023/02/21 13:09:05;;;;;;;20.00;12.43;;;9.50;99.90;;;;;;5055272;28;20033;-92
2023/02/21 13:11:31;;;;;;;17.35;11.75;;;9.50;99.90;;;;;;5055193;28;20103;-91
2023/02/21 13:13:58;;;;;;;21.63;13.63;;;10.30;99.90;;;;;;5055097;28;20459;-92
2023/02/21 13:16:24;;;;;;;21.23;12.95;;;9.90;99.90;;;;;;5055019;28;20048;-91
2023/02/21 13:18:58;;;;;;;21.17;12.95;;;9.50;99.90;;;;;;5055759;28;20074;-92
2023/02/21 13:22:06;;;;;;;22.45;13.35;;;9.50;99.90;;;;;;5055507;28;20422;-91
2023/02/21 13:24:49;;;;;;;21.90;12.05;;;9.50;99.90;;;;;;5044547;28;20408;-93
2023/02/21 13:27:45;;;;;;;19.63;12.45;;;9.50;99.90;;;;;;5055298;28;20052;-92
2023/02/21 13:30:16;;;;;;;20.55;12.85;;;9.40;99.90;;;;;;5055805;28;20082;-92
2023/02/21 13:32:57;;;;;;;17.55;10.95;;;9.40;99.90;;;;;;5055003;28;20385;-92
2023/02/21 13:35:37;;;;;;;17.80;10.68;;;9.40;99.90;;;;;;5055473;28;20148;-92
2023/02/21 13:38:09;;;;;;;17.55;11.25;;;9.30;99.90;;;;;;5055432;28;20029;-90
2023/02/21 13:40:39;;;;;;;16.92;11.35;;;9.20;99.90;;;;;;5054656;28;20184;-92
2023/02/21 13:43:16;;;;;;;17.07;11.07;;;9.30;99.90;;;;;;5054889;28;20388;-91
2023/02/21 13:45:42;;;;;;;21.30;11.00;;;10.10;99.90;;;;;;5055285;28;20033;-91
2023/02/21 13:48:07;;;;;;;14.75;10.45;;;9.60;99.90;;;;;;5065207;28;20048;-91
2023/02/21 13:50:33;;;;;;;17.63;9.82;;;9.40;99.90;;;;;;5057720;28;20017;-92
2023/02/21 13:53:07;;;;;;;16.85;10.45;;;9.40;99.90;;;;;;5066143;28;20059;-91
2023/02/21 13:55:35;;;;;;;15.75;10.55;;;9.40;99.90;;;;;;5055196;28;20021;-92
2023/02/21 13:58:00;;;;;;;15.73;10.52;;;9.90;99.90;;;;;;5054984;28;20025;-91
2023/02/21 14:00:26;;;;;;;17.58;10.85;;;9.40;99.90;;;;;;5054877;28;20039;-92
2023/02/21 14:03:08;;;;;;;17.63;10.77;;;9.40;99.90;;;;;;5054466;28;20350;-91
2023/02/21 14:05:49;;;;;;;16.63;10.45;;;9.30;99.90;;;;;;5054409;28;20024;-91
2023/02/21 14:08:44;;;;;;;17.92;12.02;;;9.30;99.90;;;;;;5054887;28;20017;-92
2023/02/21 14:11:14;;;;;;;18.65;12.18;;;9.30;99.90;;;;;;5054834;28;20417;-91
2023/02/21 14:13:54;;;;;;;16.00;11.15;;;9.40;99.90;;;;;;5054121;28;20021;-91
2023/02/21 14:16:25;;;;;;;19.55;12.00;;;9.30;99.90;;;;;;5054384;28;20121;-91
2023/02/21 14:18:59;;;;;;;17.55;11.88;;;9.20;99.90;;;;;;5054151;28;20042;-91
2023/02/21 14:21:33;;;;;;;19.48;12.40;;;9.60;99.90;;;;;;5054574;28;20025;-91
2023/02/21 14:24:03;;;;;;;16.30;11.25;;;9.20;99.90;;;;;;5054942;28;20029;-91
2023/02/21 14:26:37;;;;;;;21.00;11.32;;;9.20;99.90;;;;;;5053683;28;20443;-92
2023/02/21 14:29:06;;;;;;;22.88;12.00;;;9.20;99.90;;;;;;5055031;28;20029;-91
2023/02/21 14:32:00;;;;;;;16.95;10.70;;;9.20;99.90;;;;;;5053987;28;20109;-91
2023/02/21 14:34:32;;;;;;;16.58;9.90;;;9.30;99.90;;;;;;5053290;28;20025;-92
2023/02/21 14:37:26;;;;;;;15.77;9.75;;;9.30;99.90;;;;;;5050928;28;20025;-93
2023/02/21 14:40:00;;;;;;;11.52;8.10;;;9.30;99.90;;;;;;5054334;28;20033;-92
2023/02/21 14:42:40;;;;;;;14.38;9.27;;;9.30;99.90;;;;;;5057328;28;20046;-91
2023/02/21 14:45:09;;;;;;;15.98;10.13;;;9.30;99.90;;;;;;5057604;28;20021;-92
2023/02/21 14:47:55;;;;;;;14.07;10.68;;;9.80;99.90;;;;;;5052085;28;20041;-92
2023/02/21 14:50:51;;;;;;;17.90;11.15;;;9.80;99.90;;;;;;5044543;28;20028;-91
2023/02/21 14:57:04;;;;;;;19.83;13.15;;;9.20;99.90;;;;;;5032958;28;20106;-89
2023/02/21 14:59:44;;;;;;;20.15;12.88;;;9.20;99.90;;;;;;5033131;28;20033;-90
2023/02/21 15:02:39;;;;;;;28.23;15.00;;;9.50;99.90;;;;;;5033813;28;20033;-90
2023/02/21 15:05:38;;;;;;;22.75;14.05;;;9.20;99.90;;;;;;5034464;28;20101;-91
2023/02/21 15:08:34;;;;;;;24.92;14.32;;;9.20;99.90;;;;;;5037738;28;20025;-91
2023/02/21 15:11:18;;;;;;;35.00;16.83;;;9.20;99.90;;;;;;5042185;28;20064;-92
2023/02/21 15:13:44;;;;;;;24.88;15.57;;;9.20;99.90;;;;;;5034320;28;20028;-90
2023/02/21 15:16:12;;;;;;;25.70;15.68;;;9.90;99.90;;;;;;5033932;28;20030;-91
2023/02/21 15:18:40;;;;;;;26.45;15.40;;;9.80;99.90;;;;;;5034565;28;20025;-91
2023/02/21 15:21:09;;;;;;;27.75;16.52;;;9.20;99.90;;;;;;5033356;28;20056;-90
2023/02/21 15:23:39;;;;;;;30.23;16.20;;;9.20;99.90;;;;;;5033934;28;20025;-91
2023/02/21 15:26:33;;;;;;;29.23;17.08;;;9.60;99.90;;;;;;5036594;28;20489;-90
2023/02/21 15:29:12;;;;;;;33.38;16.35;;;9.80;99.90;;;;;;5051606;28;20040;-88
2023/02/21 15:31:43;;;;;;;31.73;15.82;;;9.60;99.90;;;;;;5058371;28;20027;-90
2023/02/21 15:34:20;;;;;;;28.23;15.88;;;9.90;99.90;;;;;;5059588;28;20021;-90
2023/02/21 15:36:53;;;;;;;24.60;13.82;;;9.80;99.90;;;;;;5040752;28;20029;-91
2023/02/21 15:39:22;;;;;;;27.65;14.48;;;9.30;99.90;;;;;;5052251;28;20087;-90
2023/02/21 15:41:50;;;;;;;31.95;15.00;;;9.80;99.90;;;;;;5036188;28;20029;-89
2023/02/21 15:44:42;;;;;;;27.33;14.80;;;9.20;99.90;;;;;;5048763;28;20021;-92
2023/02/21 15:47:18;;;;;;;27.80;14.20;;;9.40;99.90;;;;;;5054127;28;20021;-91
2023/02/21 15:50:02;;;;;;;30.63;14.20;;;9.10;99.90;;;;;;5042813;28;20112;-92
2023/02/21 15:52:52;;;;;;;29.73;14.65;;;9.20;99.90;;;;;;5063138;28;20074;-91
2023/02/21 15:55:35;;;;;;;31.17;13.82;;;9.40;99.90;;;;;;5046838;28;20091;-89
2023/02/21 15:58:10;;;;;;;24.60;12.52;;;9.10;99.90;;;;;;5056577;28;20071;-91
2023/02/21 16:01:06;;;;;;;34.47;14.68;;;9.60;99.90;;;;;;5054221;28;20040;-91
2023/02/21 16:03:48;;;;;;;33.45;14.57;;;9.10;99.90;;;;;;5032334;28;20029;-90